Date,TemperatureHighF,TemperatureAvgF,TemperatureLowF,DewpointHighF,DewpointAvgF,DewpointLowF,HumidityHigh,HumidityAvg,HumidityLow,PressureMaxIn,PressureMinIn,WindSpeedMaxMPH,WindSpeedAvgMPH,GustSpeedMaxMPH,PrecipitationSumIn
2012-12-4,49.5,36.9,26.1,21.6,15.8,7.2,56,43,25,30.63,30.28,5,1,9,0.00
2012-12-5,51.1,38.2,31.1,24.4,19.7,16.4,61,49,26,30.55,30.00,4,1,8,0.00
2012-12-6,48.4,37.3,28.9,37.2,28.7,22.7,90,71,51,30.17,29.88,4,1,7,0.01
2012-12-7,46.9,36.4,28.9,33.2,24.4,17.8,89,63,34,30.16,29.85,8,2,14,2.50
2012-12-8,46.0,32.8,25.3,20.0,15.8,9.4,64,52,22,30.11,29.72,6,2,13,0.00
2012-12-9,13.5,8.5,7.2,-1.1,-2.2,-2.6,63,60,51,30.69,30.56,2,1,4,0.00
2012-12-10,18.0,16.4,12.4,11.7,10.9,8.2,83,78,76,30.47,30.40,2,1,5,0.01
2012-12-11,35.1,22.2,9.7,17.8,13.1,5.3,87,69,44,30.55,30.11,4,1,9,0.01
2012-12-12,43.5,30.6,17.4,18.7,13.8,8.9,79,52,28,30.33,29.86,11,2,21,0.05
2012-12-13,50.5,38.7,28.6,14.7,10.4,6.9,52,32,17,30.19,29.81,13,3,22,0.01
2012-12-14,39.7,33.1,28.6,29.4,21.9,10.2,97,67,34,30.00,29.58,51,1,8,2.56
2012-12-15,36.9,29.0,27.3,36.1,28.0,26.6,98,96,95,30.02,29.87,2,0,4,2.56
2012-12-18,32.9,32.1,31.1,26.6,25.6,24.9,83,77,73,29.69,29.65,8,5,16,0.00
2012-12-19,22.3,21.6,21.4,11.1,7.3,6.1,62,54,51,30.18,30.15,8,7,11,0.00
2012-12-20,26.8,12.2,-0.4,5.1,-0.9,-6.9,72,56,31,31.08,30.61,3,1,7,0.00
2012-12-21,32.4,13.6,0.3,9.6,0.8,-8.9,77,57,37,31.00,30.38,2,0,4,0.00
2012-12-22,35.6,18.8,5.5,12.9,7.1,-0.5,78,61,34,30.77,30.18,3,0,5,0.01
2012-12-23,39.0,24.4,16.3,18.9,14.1,8.6,85,66,40,30.44,30.09,4,1,6,0.00
2012-12-24,34.2,26.8,22.1,32.1,22.7,18.6,93,85,70,30.21,29.80,5,1,11,0.00
2012-12-25,54.7,22.3,8.2,49.9,14.9,-17.2,92,75,21,30.55,29.74,59,1,59,26.91
2012-12-26,48.2,24.4,13.5,46.8,16.4,-17.2,95,75,21,30.41,29.71,59,9,59,2.75
2012-12-27,27.9,19.0,11.5,21.4,15.5,8.9,93,86,65,30.30,29.87,4,1,9,0.00
2012-12-28,28.6,13.2,1.8,14.3,6.7,-2.0,91,76,45,30.83,30.23,4,1,8,0.01
2012-12-29,23.9,10.2,1.4,8.7,1.7,-3.7,82,69,48,30.81,30.31,4,1,7,0.00
2012-12-30,30.7,16.2,2.8,21.2,9.5,-2.6,91,76,46,30.60,30.01,4,1,11,2.76
2012-12-31,26.8,17.3,6.3,19.1,12.7,3.2,93,82,59,30.58,30.08,5,1,9,0.00